sensor_id;sensor_type;location;lat;lon;timestamp;P1;durP1;ratioP1;P2;durP2;ratioP2
17985;SDS011;9118;48.122;11.546;2023-04-07T00:02:18;17.40;;;9.73;;
17985;SDS011;9118;48.122;11.546;2023-04-07T00:04:45;16.43;;;8.83;;
17985;SDS011;9118;48.122;11.546;2023-04-07T00:07:13;15.40;;;8.70;;
17985;SDS011;9118;48.122;11.546;2023-04-07T00:09:45;16.97;;;8.37;;
17985;SDS011;9118;48.122;11.546;2023-04-07T00:12:12;14.47;;;9.30;;
17985;SDS011;9118;48.122;11.546;2023-04-07T00:14:39;13.83;;;8.33;;
17985;SDS011;9118;48.122;11.546;2023-04-07T00:17:06;16.93;;;8.30;;
17985;SDS011;9118;48.122;11.546;2023-04-07T00:19:33;11.00;;;7.90;;
17985;SDS011;9118;48.122;11.546;2023-04-07T00:22:00;11.40;;;7.67;;
17985;SDS011;9118;48.122;11.546;2023-04-07T00:24:28;15.00;;;8.40;;
17985;SDS011;9118;48.122;11.546;2023-04-07T00:26:56;15.27;;;7.80;;
17985;SDS011;9118;48.122;11.546;2023-04-07T00:29:23;11.60;;;7.50;;
17985;SDS011;9118;48.122;11.546;2023-04-07T00:31:50;11.93;;;7.37;;
17985;SDS011;9118;48.122;11.546;2023-04-07T00:34:18;14.33;;;7.80;;
17985;SDS011;9118;48.122;11.546;2023-04-07T00:36:45;14.67;;;7.97;;
17985;SDS011;9118;48.122;11.546;2023-04-07T00:39:16;13.23;;;7.13;;
17985;SDS011;9118;48.122;11.546;2023-04-07T00:41:44;11.87;;;8.10;;
17985;SDS011;9118;48.122;11.546;2023-04-07T00:44:13;13.03;;;7.63;;
17985;SDS011;9118;48.122;11.546;2023-04-07T00:46:40;10.17;;;7.47;;
17985;SDS011;9118;48.122;11.546;2023-04-07T00:49:15;10.43;;;7.23;;
17985;SDS011;9118;48.122;11.546;2023-04-07T00:51:43;10.90;;;7.33;;
17985;SDS011;9118;48.122;11.546;2023-04-07T00:54:12;14.17;;;7.30;;
17985;SDS011;9118;48.122;11.546;2023-04-07T00:56:40;9.73;;;6.93;;
17985;SDS011;9118;48.122;11.546;2023-04-07T00:59:07;10.80;;;7.07;;
17985;SDS011;9118;48.122;11.546;2023-04-07T01:01:37;10.97;;;7.10;;
17985;SDS011;9118;48.122;11.546;2023-04-07T01:04:12;9.53;;;7.03;;
17985;SDS011;9118;48.122;11.546;2023-04-07T01:06:49;13.13;;;7.93;;
17985;SDS011;9118;48.122;11.546;2023-04-07T01:09:20;13.33;;;7.47;;
17985;SDS011;9118;48.122;11.546;2023-04-07T01:11:52;11.73;;;7.13;;
17985;SDS011;9118;48.122;11.546;2023-04-07T01:14:27;11.23;;;7.43;;
17985;SDS011;9118;48.122;11.546;2023-04-07T01:17:02;11.03;;;6.70;;
17985;SDS011;9118;48.122;11.546;2023-04-07T01:19:34;11.83;;;6.97;;
17985;SDS011;9118;48.122;11.546;2023-04-07T01:22:05;10.40;;;7.50;;
17985;SDS011;9118;48.122;11.546;2023-04-07T01:24:41;10.80;;;6.67;;
17985;SDS011;9118;48.122;11.546;2023-04-07T01:27:20;9.53;;;6.87;;
17985;SDS011;9118;48.122;11.546;2023-04-07T01:30:06;11.93;;;6.87;;
17985;SDS011;9118;48.122;11.546;2023-04-07T01:32:35;9.60;;;6.37;;
17985;SDS011;9118;48.122;11.546;2023-04-07T01:35:05;9.67;;;6.13;;
17985;SDS011;9118;48.122;11.546;2023-04-07T01:37:35;8.33;;;5.70;;
17985;SDS011;9118;48.122;11.546;2023-04-07T01:40:04;9.73;;;6.10;;
17985;SDS011;9118;48.122;11.546;2023-04-07T01:42:36;8.23;;;5.87;;
17985;SDS011;9118;48.122;11.546;2023-04-07T01:45:08;8.80;;;5.97;;
17985;SDS011;9118;48.122;11.546;2023-04-07T01:47:36;10.13;;;5.63;;
17985;SDS011;9118;48.122;11.546;2023-04-07T01:50:05;8.53;;;6.00;;
17985;SDS011;9118;48.122;11.546;2023-04-07T01:52:34;11.63;;;6.33;;
17985;SDS011;9118;48.122;11.546;2023-04-07T01:55:02;8.27;;;5.47;;
17985;SDS011;9118;48.122;11.546;2023-04-07T01:57:29;9.23;;;6.30;;
17985;SDS011;9118;48.122;11.546;2023-04-07T01:59:56;8.77;;;5.43;;
17985;SDS011;9118;48.122;11.546;2023-04-07T02:02:29;8.43;;;5.27;;
17985;SDS011;9118;48.122;11.546;2023-04-07T02:04:57;8.03;;;5.30;;
17985;SDS011;9118;48.122;11.546;2023-04-07T02:07:30;6.67;;;5.30;;
17985;SDS011;9118;48.122;11.546;2023-04-07T02:10:04;6.03;;;4.80;;
17985;SDS011;9118;48.122;11.546;2023-04-07T02:12:36;7.30;;;5.27;;
17985;SDS011;9118;48.122;11.546;2023-04-07T02:15:05;6.17;;;4.60;;
17985;SDS011;9118;48.122;11.546;2023-04-07T02:17:38;6.93;;;5.17;;
17985;SDS011;9118;48.122;11.546;2023-04-07T02:20:08;7.17;;;5.37;;
17985;SDS011;9118;48.122;11.546;2023-04-07T02:22:36;5.93;;;4.90;;
17985;SDS011;9118;48.122;11.546;2023-04-07T02:25:19;7.50;;;4.63;;
17985;SDS011;9118;48.122;11.546;2023-04-07T02:27:53;5.73;;;4.60;;
17985;SDS011;9118;48.122;11.546;2023-04-07T02:30:22;8.20;;;4.57;;
17985;SDS011;9118;48.122;11.546;2023-04-07T02:32:51;8.07;;;4.67;;
17985;SDS011;9118;48.122;11.546;2023-04-07T02:35:19;7.83;;;4.80;;
17985;SDS011;9118;48.122;11.546;2023-04-07T02:37:47;5.43;;;4.63;;
17985;SDS011;9118;48.122;11.546;2023-04-07T02:40:14;7.33;;;5.20;;
17985;SDS011;9118;48.122;11.546;2023-04-07T02:42:41;6.77;;;5.00;;
17985;SDS011;9118;48.122;11.546;2023-04-07T02:45:09;11.23;;;5.47;;
17985;SDS011;9118;48.122;11.546;2023-04-07T02:47:37;6.10;;;4.60;;
17985;SDS011;9118;48.122;11.546;2023-04-07T02:50:07;7.33;;;4.80;;
17985;SDS011;9118;48.122;11.546;2023-04-07T02:52:34;6.63;;;4.73;;
17985;SDS011;9118;48.122;11.546;2023-04-07T02:55:01;7.37;;;4.77;;
17985;SDS011;9118;48.122;11.546;2023-04-07T02:57:33;7.30;;;5.07;;
17985;SDS011;9118;48.122;11.546;2023-04-07T03:00:00;7.10;;;4.67;;
17985;SDS011;9118;48.122;11.546;2023-04-07T03:02:28;9.27;;;5.10;;
17985;SDS011;9118;48.122;11.546;2023-04-07T03:04:55;6.43;;;4.53;;
17985;SDS011;9118;48.122;11.546;2023-04-07T03:07:24;6.77;;;5.03;;
17985;SDS011;9118;48.122;11.546;2023-04-07T03:09:51;7.10;;;5.23;;
17985;SDS011;9118;48.122;11.546;2023-04-07T03:12:18;6.77;;;4.77;;
17985;SDS011;9118;48.122;11.546;2023-04-07T03:14:46;6.23;;;4.93;;
17985;SDS011;9118;48.122;11.546;2023-04-07T03:17:12;8.63;;;4.83;;
17985;SDS011;9118;48.122;11.546;2023-04-07T03:19:40;8.20;;;5.07;;
17985;SDS011;9118;48.122;11.546;2023-04-07T03:22:07;8.30;;;5.10;;
17985;SDS011;9118;48.122;11.546;2023-04-07T03:24:35;6.77;;;4.87;;
17985;SDS011;9118;48.122;11.546;2023-04-07T03:27:03;8.07;;;5.57;;
17985;SDS011;9118;48.122;11.546;2023-04-07T03:29:32;7.63;;;5.37;;
17985;SDS011;9118;48.122;11.546;2023-04-07T03:31:59;6.83;;;5.17;;
17985;SDS011;9118;48.122;11.546;2023-04-07T03:34:26;7.37;;;5.47;;
17985;SDS011;9118;48.122;11.546;2023-04-07T03:36:53;8.23;;;5.83;;
17985;SDS011;9118;48.122;11.546;2023-04-07T03:39:20;8.47;;;5.73;;
17985;SDS011;9118;48.122;11.546;2023-04-07T03:41:49;7.83;;;5.63;;
17985;SDS011;9118;48.122;11.546;2023-04-07T03:44:16;8.67;;;5.67;;
17985;SDS011;9118;48.122;11.546;2023-04-07T03:46:43;9.07;;;5.40;;
17985;SDS011;9118;48.122;11.546;2023-04-07T03:49:12;7.43;;;5.47;;
17985;SDS011;9118;48.122;11.546;2023-04-07T03:51:40;8.87;;;5.70;;
17985;SDS011;9118;48.122;11.546;2023-04-07T03:54:07;8.07;;;5.63;;
17985;SDS011;9118;48.122;11.546;2023-04-07T03:56:35;10.57;;;5.70;;
17985;SDS011;9118;48.122;11.546;2023-04-07T03:59:04;8.33;;;5.93;;
17985;SDS011;9118;48.122;11.546;2023-04-07T04:01:31;7.50;;;5.70;;
17985;SDS011;9118;48.122;11.546;2023-04-07T04:03:58;9.50;;;6.33;;
17985;SDS011;9118;48.122;11.546;2023-04-07T04:06:25;8.67;;;6.07;;
17985;SDS011;9118;48.122;11.546;2023-04-07T04:08:52;8.93;;;6.07;;
17985;SDS011;9118;48.122;11.546;2023-04-07T04:11:20;9.53;;;6.00;;
17985;SDS011;9118;48.122;11.546;2023-04-07T04:13:47;8.07;;;5.67;;
17985;SDS011;9118;48.122;11.546;2023-04-07T04:16:16;8.90;;;6.00;;
17985;SDS011;9118;48.122;11.546;2023-04-07T04:18:43;9.20;;;5.93;;
17985;SDS011;9118;48.122;11.546;2023-04-07T04:21:10;7.83;;;5.70;;
17985;SDS011;9118;48.122;11.546;2023-04-07T04:23:37;9.13;;;5.90;;
17985;SDS011;9118;48.122;11.546;2023-04-07T04:26:04;9.67;;;6.33;;
17985;SDS011;9118;48.122;11.546;2023-04-07T04:28:32;9.77;;;6.43;;
17985;SDS011;9118;48.122;11.546;2023-04-07T04:31:00;10.30;;;6.90;;
17985;SDS011;9118;48.122;11.546;2023-04-07T04:33:29;9.17;;;6.33;;
17985;SDS011;9118;48.122;11.546;2023-04-07T04:35:56;9.23;;;6.77;;
17985;SDS011;9118;48.122;11.546;2023-04-07T04:38:23;9.83;;;6.13;;
17985;SDS011;9118;48.122;11.546;2023-04-07T04:40:50;10.80;;;6.10;;
17985;SDS011;9118;48.122;11.546;2023-04-07T04:43:17;9.13;;;6.50;;
17985;SDS011;9118;48.122;11.546;2023-04-07T04:45:44;8.47;;;6.10;;
17985;SDS011;9118;48.122;11.546;2023-04-07T04:48:11;10.20;;;6.67;;
17985;SDS011;9118;48.122;11.546;2023-04-07T04:50:40;10.00;;;6.53;;
17985;SDS011;9118;48.122;11.546;2023-04-07T04:53:07;8.63;;;6.47;;
17985;SDS011;9118;48.122;11.546;2023-04-07T04:55:35;10.70;;;6.47;;
17985;SDS011;9118;48.122;11.546;2023-04-07T04:58:04;12.60;;;6.53;;
17985;SDS011;9118;48.122;11.546;2023-04-07T05:00:32;9.27;;;6.50;;
17985;SDS011;9118;48.122;11.546;2023-04-07T05:02:59;8.63;;;6.37;;
17985;SDS011;9118;48.122;11.546;2023-04-07T05:05:27;8.23;;;6.13;;
17985;SDS011;9118;48.122;11.546;2023-04-07T05:07:57;8.40;;;6.43;;
17985;SDS011;9118;48.122;11.546;2023-04-07T05:10:24;9.73;;;6.80;;
17985;SDS011;9118;48.122;11.546;2023-04-07T05:12:51;8.93;;;6.73;;
17985;SDS011;9118;48.122;11.546;2023-04-07T05:15:18;10.27;;;6.57;;
17985;SDS011;9118;48.122;11.546;2023-04-07T05:17:46;10.77;;;7.10;;
17985;SDS011;9118;48.122;11.546;2023-04-07T05:20:14;11.90;;;7.17;;
17985;SDS011;9118;48.122;11.546;2023-04-07T05:22:42;9.90;;;6.37;;
17985;SDS011;9118;48.122;11.546;2023-04-07T05:25:11;9.57;;;7.17;;
17985;SDS011;9118;48.122;11.546;2023-04-07T05:27:38;9.47;;;7.03;;
17985;SDS011;9118;48.122;11.546;2023-04-07T05:30:06;10.17;;;6.63;;
17985;SDS011;9118;48.122;11.546;2023-04-07T05:32:34;9.30;;;6.33;;
17985;SDS011;9118;48.122;11.546;2023-04-07T05:35:02;14.13;;;7.10;;
17985;SDS011;9118;48.122;11.546;2023-04-07T05:37:30;12.53;;;7.93;;
17985;SDS011;9118;48.122;11.546;2023-04-07T05:39:57;8.87;;;6.43;;
17985;SDS011;9118;48.122;11.546;2023-04-07T05:42:25;10.67;;;7.00;;
17985;SDS011;9118;48.122;11.546;2023-04-07T05:44:52;8.27;;;6.37;;
17985;SDS011;9118;48.122;11.546;2023-04-07T05:47:20;8.97;;;6.73;;
17985;SDS011;9118;48.122;11.546;2023-04-07T05:49:48;10.60;;;6.77;;
17985;SDS011;9118;48.122;11.546;2023-04-07T05:52:15;11.87;;;7.60;;
17985;SDS011;9118;48.122;11.546;2023-04-07T05:54:56;12.43;;;7.70;;
17985;SDS011;9118;48.122;11.546;2023-04-07T05:57:23;13.83;;;7.63;;
17985;SDS011;9118;48.122;11.546;2023-04-07T05:59:56;11.90;;;6.90;;
17985;SDS011;9118;48.122;11.546;2023-04-07T06:02:24;10.20;;;7.07;;
17985;SDS011;9118;48.122;11.546;2023-04-07T06:04:51;10.87;;;7.13;;
17985;SDS011;9118;48.122;11.546;2023-04-07T06:07:18;12.90;;;7.90;;
17985;SDS011;9118;48.122;11.546;2023-04-07T06:09:47;11.00;;;6.87;;
17985;SDS011;9118;48.122;11.546;2023-04-07T06:12:15;12.70;;;8.20;;
17985;SDS011;9118;48.122;11.546;2023-04-07T06:14:42;10.20;;;7.27;;
17985;SDS011;9118;48.122;11.546;2023-04-07T06:17:13;10.90;;;7.10;;
17985;SDS011;9118;48.122;11.546;2023-04-07T06:19:40;12.63;;;7.37;;
17985;SDS011;9118;48.122;11.546;2023-04-07T06:22:07;10.53;;;7.47;;
17985;SDS011;9118;48.122;11.546;2023-04-07T06:24:34;10.47;;;7.53;;
17985;SDS011;9118;48.122;11.546;2023-04-07T06:27:01;10.17;;;6.97;;
17985;SDS011;9118;48.122;11.546;2023-04-07T06:29:31;11.40;;;7.60;;
17985;SDS011;9118;48.122;11.546;2023-04-07T06:32:00;11.50;;;7.57;;
17985;SDS011;9118;48.122;11.546;2023-04-07T06:34:29;10.57;;;7.03;;
17985;SDS011;9118;48.122;11.546;2023-04-07T06:36:57;11.13;;;7.37;;
17985;SDS011;9118;48.122;11.546;2023-04-07T06:39:25;9.50;;;7.40;;
17985;SDS011;9118;48.122;11.546;2023-04-07T06:41:52;9.47;;;7.30;;
17985;SDS011;9118;48.122;11.546;2023-04-07T06:44:21;10.27;;;6.83;;
17985;SDS011;9118;48.122;11.546;2023-04-07T06:46:47;12.77;;;7.13;;
17985;SDS011;9118;48.122;11.546;2023-04-07T06:49:17;10.67;;;7.13;;
17985;SDS011;9118;48.122;11.546;2023-04-07T06:51:45;10.87;;;7.57;;
17985;SDS011;9118;48.122;11.546;2023-04-07T06:54:13;9.77;;;7.20;;
17985;SDS011;9118;48.122;11.546;2023-04-07T06:56:39;10.77;;;7.30;;
17985;SDS011;9118;48.122;11.546;2023-04-07T06:59:07;9.50;;;6.60;;
17985;SDS011;9118;48.122;11.546;2023-04-07T07:01:34;11.97;;;6.83;;
17985;SDS011;9118;48.122;11.546;2023-04-07T07:04:02;13.73;;;7.27;;
17985;SDS011;9118;48.122;11.546;2023-04-07T07:06:29;9.77;;;7.20;;
17985;SDS011;9118;48.122;11.546;2023-04-07T07:08:58;13.10;;;7.37;;
17985;SDS011;9118;48.122;11.546;2023-04-07T07:11:27;9.40;;;6.50;;
17985;SDS011;9118;48.122;11.546;2023-04-07T07:13:54;12.63;;;7.10;;
17985;SDS011;9118;48.122;11.546;2023-04-07T07:16:21;8.67;;;6.77;;
17985;SDS011;9118;48.122;11.546;2023-04-07T07:18:48;10.00;;;6.50;;
17985;SDS011;9118;48.122;11.546;2023-04-07T07:21:16;8.87;;;6.43;;
17985;SDS011;9118;48.122;11.546;2023-04-07T07:23:43;10.73;;;7.53;;
17985;SDS011;9118;48.122;11.546;2023-04-07T07:26:12;9.33;;;6.83;;
17985;SDS011;9118;48.122;11.546;2023-04-07T07:28:39;13.33;;;7.10;;
17985;SDS011;9118;48.122;11.546;2023-04-07T07:31:07;10.83;;;7.10;;
17985;SDS011;9118;48.122;11.546;2023-04-07T07:33:37;13.57;;;7.07;;
17985;SDS011;9118;48.122;11.546;2023-04-07T07:36:05;10.10;;;6.57;;
17985;SDS011;9118;48.122;11.546;2023-04-07T07:38:33;7.37;;;6.33;;
17985;SDS011;9118;48.122;11.546;2023-04-07T07:41:00;9.60;;;7.00;;
17985;SDS011;9118;48.122;11.546;2023-04-07T07:43:28;9.90;;;6.87;;
17985;SDS011;9118;48.122;11.546;2023-04-07T07:45:56;10.10;;;6.60;;
17985;SDS011;9118;48.122;11.546;2023-04-07T07:48:23;8.97;;;6.70;;
17985;SDS011;9118;48.122;11.546;2023-04-07T07:50:50;9.73;;;6.93;;
17985;SDS011;9118;48.122;11.546;2023-04-07T07:53:17;9.60;;;6.77;;
17985;SDS011;9118;48.122;11.546;2023-04-07T07:55:44;13.17;;;7.40;;
17985;SDS011;9118;48.122;11.546;2023-04-07T07:58:11;11.60;;;7.17;;
17985;SDS011;9118;48.122;11.546;2023-04-07T08:00:40;11.23;;;7.27;;
17985;SDS011;9118;48.122;11.546;2023-04-07T08:03:07;10.13;;;6.93;;
17985;SDS011;9118;48.122;11.546;2023-04-07T08:05:34;12.77;;;7.00;;
17985;SDS011;9118;48.122;11.546;2023-04-07T08:08:01;8.90;;;6.93;;
17985;SDS011;9118;48.122;11.546;2023-04-07T08:10:28;9.60;;;7.10;;
17985;SDS011;9118;48.122;11.546;2023-04-07T08:12:55;12.63;;;7.27;;
17985;SDS011;9118;48.122;11.546;2023-04-07T08:15:22;9.43;;;6.57;;
17985;SDS011;9118;48.122;11.546;2023-04-07T08:17:51;11.13;;;7.00;;
17985;SDS011;9118;48.122;11.546;2023-04-07T08:20:18;9.37;;;7.40;;
17985;SDS011;9118;48.122;11.546;2023-04-07T08:22:45;9.43;;;6.87;;
17985;SDS011;9118;48.122;11.546;2023-04-07T08:25:12;10.60;;;6.57;;
17985;SDS011;9118;48.122;11.546;2023-04-07T08:27:39;9.97;;;7.33;;
17985;SDS011;9118;48.122;11.546;2023-04-07T08:30:07;12.97;;;6.87;;
17985;SDS011;9118;48.122;11.546;2023-04-07T08:32:34;9.60;;;7.23;;
17985;SDS011;9118;48.122;11.546;2023-04-07T08:35:04;8.60;;;6.47;;
17985;SDS011;9118;48.122;11.546;2023-04-07T08:37:32;7.60;;;6.37;;
17985;SDS011;9118;48.122;11.546;2023-04-07T08:40:00;8.73;;;6.70;;
17985;SDS011;9118;48.122;11.546;2023-04-07T08:42:28;9.63;;;7.00;;
17985;SDS011;9118;48.122;11.546;2023-04-07T08:44:57;18.93;;;13.10;;
17985;SDS011;9118;48.122;11.546;2023-04-07T08:47:29;19.20;;;12.63;;
17985;SDS011;9118;48.122;11.546;2023-04-07T08:49:59;11.17;;;7.47;;
17985;SDS011;9118;48.122;11.546;2023-04-07T08:52:32;9.33;;;7.27;;
17985;SDS011;9118;48.122;11.546;2023-04-07T08:55:00;9.43;;;6.87;;
17985;SDS011;9118;48.122;11.546;2023-04-07T08:57:31;10.67;;;6.83;;
17985;SDS011;9118;48.122;11.546;2023-04-07T08:59:59;10.20;;;7.80;;
17985;SDS011;9118;48.122;11.546;2023-04-07T09:02:30;11.70;;;6.90;;
17985;SDS011;9118;48.122;11.546;2023-04-07T09:04:58;10.67;;;6.87;;
17985;SDS011;9118;48.122;11.546;2023-04-07T09:07:31;10.27;;;7.07;;
17985;SDS011;9118;48.122;11.546;2023-04-07T09:09:58;7.87;;;6.40;;
17985;SDS011;9118;48.122;11.546;2023-04-07T09:12:26;11.43;;;7.63;;
17985;SDS011;9118;48.122;11.546;2023-04-07T09:14:55;13.30;;;8.33;;
17985;SDS011;9118;48.122;11.546;2023-04-07T09:17:23;9.03;;;6.80;;
17985;SDS011;9118;48.122;11.546;2023-04-07T09:19:51;10.90;;;6.80;;
17985;SDS011;9118;48.122;11.546;2023-04-07T09:22:34;8.63;;;6.30;;
17985;SDS011;9118;48.122;11.546;2023-04-07T09:25:11;10.43;;;6.73;;
17985;SDS011;9118;48.122;11.546;2023-04-07T09:27:39;14.33;;;11.10;;
17985;SDS011;9118;48.122;11.546;2023-04-07T09:30:10;10.47;;;7.83;;
17985;SDS011;9118;48.122;11.546;2023-04-07T09:32:39;10.43;;;7.23;;
17985;SDS011;9118;48.122;11.546;2023-04-07T09:35:07;13.03;;;8.30;;
17985;SDS011;9118;48.122;11.546;2023-04-07T09:37:36;8.53;;;6.97;;
17985;SDS011;9118;48.122;11.546;2023-04-07T09:40:03;11.20;;;7.70;;
17985;SDS011;9118;48.122;11.546;2023-04-07T09:42:31;9.73;;;7.00;;
17985;SDS011;9118;48.122;11.546;2023-04-07T09:45:01;10.17;;;7.07;;
17985;SDS011;9118;48.122;11.546;2023-04-07T09:47:30;10.00;;;7.10;;
17985;SDS011;9118;48.122;11.546;2023-04-07T09:49:57;9.60;;;7.10;;
17985;SDS011;9118;48.122;11.546;2023-04-07T09:55:18;10.07;;;7.27;;
17985;SDS011;9118;48.122;11.546;2023-04-07T09:57:46;9.03;;;6.93;;
17985;SDS011;9118;48.122;11.546;2023-04-07T10:00:15;9.97;;;7.47;;
17985;SDS011;9118;48.122;11.546;2023-04-07T10:02:43;8.97;;;7.20;;
17985;SDS011;9118;48.122;11.546;2023-04-07T10:05:10;8.40;;;6.60;;
17985;SDS011;9118;48.122;11.546;2023-04-07T10:07:38;9.07;;;6.60;;
17985;SDS011;9118;48.122;11.546;2023-04-07T10:10:07;10.53;;;5.97;;
17985;SDS011;9118;48.122;11.546;2023-04-07T10:12:36;7.67;;;6.60;;
17985;SDS011;9118;48.122;11.546;2023-04-07T10:15:03;9.77;;;6.80;;
17985;SDS011;9118;48.122;11.546;2023-04-07T10:17:31;9.53;;;6.90;;
17985;SDS011;9118;48.122;11.546;2023-04-07T10:20:01;8.77;;;6.83;;
17985;SDS011;9118;48.122;11.546;2023-04-07T10:22:33;11.90;;;8.97;;
17985;SDS011;9118;48.122;11.546;2023-04-07T10:25:03;9.30;;;7.17;;
17985;SDS011;9118;48.122;11.546;2023-04-07T10:27:36;8.53;;;7.10;;
17985;SDS011;9118;48.122;11.546;2023-04-07T10:30:12;8.67;;;6.87;;
17985;SDS011;9118;48.122;11.546;2023-04-07T10:32:51;9.17;;;7.10;;
17985;SDS011;9118;48.122;11.546;2023-04-07T10:35:19;10.10;;;7.07;;
17985;SDS011;9118;48.122;11.546;2023-04-07T10:40:39;11.60;;;7.53;;
17985;SDS011;9118;48.122;11.546;2023-04-07T10:43:07;8.10;;;7.10;;
17985;SDS011;9118;48.122;11.546;2023-04-07T10:45:54;8.67;;;7.10;;
17985;SDS011;9118;48.122;11.546;2023-04-07T10:48:24;8.77;;;7.20;;
17985;SDS011;9118;48.122;11.546;2023-04-07T10:57:08;11.17;;;7.43;;
17985;SDS011;9118;48.122;11.546;2023-04-07T10:59:39;8.60;;;7.23;;
17985;SDS011;9118;48.122;11.546;2023-04-07T11:05:03;8.40;;;6.60;;
17985;SDS011;9118;48.122;11.546;2023-04-07T11:07:44;8.40;;;7.27;;
17985;SDS011;9118;48.122;11.546;2023-04-07T11:10:14;9.17;;;7.33;;
17985;SDS011;9118;48.122;11.546;2023-04-07T11:12:44;8.33;;;6.97;;
17985;SDS011;9118;48.122;11.546;2023-04-07T11:15:27;7.90;;;6.93;;
17985;SDS011;9118;48.122;11.546;2023-04-07T11:18:11;8.33;;;6.90;;
17985;SDS011;9118;48.122;11.546;2023-04-07T11:20:40;8.77;;;6.53;;
17985;SDS011;9118;48.122;11.546;2023-04-07T11:23:12;8.73;;;7.10;;
17985;SDS011;9118;48.122;11.546;2023-04-07T11:25:41;8.10;;;6.70;;
17985;SDS011;9118;48.122;11.546;2023-04-07T11:28:10;8.20;;;6.13;;
17985;SDS011;9118;48.122;11.546;2023-04-07T11:30:38;8.47;;;6.87;;
17985;SDS011;9118;48.122;11.546;2023-04-07T11:33:13;7.93;;;6.80;;
17985;SDS011;9118;48.122;11.546;2023-04-07T11:35:48;9.97;;;6.63;;
17985;SDS011;9118;48.122;11.546;2023-04-07T11:38:16;8.20;;;6.33;;
17985;SDS011;9118;48.122;11.546;2023-04-07T11:40:43;8.93;;;6.63;;
17985;SDS011;9118;48.122;11.546;2023-04-07T11:43:18;7.37;;;6.57;;
17985;SDS011;9118;48.122;11.546;2023-04-07T11:48:30;10.07;;;6.87;;
17985;SDS011;9118;48.122;11.546;2023-04-07T11:50:57;8.93;;;7.07;;
17985;SDS011;9118;48.122;11.546;2023-04-07T11:53:27;9.67;;;6.93;;
17985;SDS011;9118;48.122;11.546;2023-04-07T11:56:02;9.00;;;7.30;;
17985;SDS011;9118;48.122;11.546;2023-04-07T11:58:32;10.83;;;7.50;;
17985;SDS011;9118;48.122;11.546;2023-04-07T12:01:01;7.90;;;6.80;;
17985;SDS011;9118;48.122;11.546;2023-04-07T12:03:31;8.30;;;7.27;;
17985;SDS011;9118;48.122;11.546;2023-04-07T12:05:59;10.50;;;7.27;;
17985;SDS011;9118;48.122;11.546;2023-04-07T12:08:35;10.37;;;7.57;;
17985;SDS011;9118;48.122;11.546;2023-04-07T12:11:06;10.10;;;8.17;;
17985;SDS011;9118;48.122;11.546;2023-04-07T12:13:36;8.00;;;7.20;;
17985;SDS011;9118;48.122;11.546;2023-04-07T12:16:03;8.93;;;6.77;;
17985;SDS011;9118;48.122;11.546;2023-04-07T12:18:31;16.30;;;7.17;;
17985;SDS011;9118;48.122;11.546;2023-04-07T12:20:58;9.43;;;7.30;;
17985;SDS011;9118;48.122;11.546;2023-04-07T12:23:25;9.87;;;6.63;;
17985;SDS011;9118;48.122;11.546;2023-04-07T12:25:52;11.03;;;7.10;;
17985;SDS011;9118;48.122;11.546;2023-04-07T12:28:19;7.90;;;6.97;;
17985;SDS011;9118;48.122;11.546;2023-04-07T12:30:48;7.93;;;6.83;;
17985;SDS011;9118;48.122;11.546;2023-04-07T12:33:18;9.07;;;7.13;;
17985;SDS011;9118;48.122;11.546;2023-04-07T12:35:45;8.67;;;6.90;;
17985;SDS011;9118;48.122;11.546;2023-04-07T12:38:12;8.60;;;6.70;;
17985;SDS011;9118;48.122;11.546;2023-04-07T12:40:39;9.43;;;7.03;;
17985;SDS011;9118;48.122;11.546;2023-04-07T12:43:07;7.87;;;6.60;;
17985;SDS011;9118;48.122;11.546;2023-04-07T12:45:34;10.07;;;6.67;;
17985;SDS011;9118;48.122;11.546;2023-04-07T12:48:03;10.20;;;7.10;;
17985;SDS011;9118;48.122;11.546;2023-04-07T12:50:30;8.23;;;7.23;;
17985;SDS011;9118;48.122;11.546;2023-04-07T12:52:57;8.53;;;7.53;;
17985;SDS011;9118;48.122;11.546;2023-04-07T12:55:27;10.67;;;6.93;;
17985;SDS011;9118;48.122;11.546;2023-04-07T12:57:57;7.57;;;6.73;;
17985;SDS011;9118;48.122;11.546;2023-04-07T13:00:24;8.30;;;7.40;;
17985;SDS011;9118;48.122;11.546;2023-04-07T13:02:51;10.93;;;6.87;;
17985;SDS011;9118;48.122;11.546;2023-04-07T13:05:22;9.47;;;7.57;;
17985;SDS011;9118;48.122;11.546;2023-04-07T13:07:50;9.40;;;7.27;;
17985;SDS011;9118;48.122;11.546;2023-04-07T13:10:16;9.93;;;7.80;;
17985;SDS011;9118;48.122;11.546;2023-04-07T13:12:44;9.97;;;7.20;;
17985;SDS011;9118;48.122;11.546;2023-04-07T13:15:11;10.53;;;7.00;;
17985;SDS011;9118;48.122;11.546;2023-04-07T13:17:38;9.37;;;6.93;;
17985;SDS011;9118;48.122;11.546;2023-04-07T13:20:08;8.60;;;7.07;;
17985;SDS011;9118;48.122;11.546;2023-04-07T13:22:37;9.13;;;7.30;;
17985;SDS011;9118;48.122;11.546;2023-04-07T13:25:04;9.90;;;7.10;;
17985;SDS011;9118;48.122;11.546;2023-04-07T13:27:32;9.60;;;8.07;;
17985;SDS011;9118;48.122;11.546;2023-04-07T13:29:59;11.30;;;7.30;;
17985;SDS011;9118;48.122;11.546;2023-04-07T13:32:27;10.13;;;7.57;;
17985;SDS011;9118;48.122;11.546;2023-04-07T13:34:54;9.37;;;7.67;;
17985;SDS011;9118;48.122;11.546;2023-04-07T13:37:22;10.80;;;7.83;;
17985;SDS011;9118;48.122;11.546;2023-04-07T13:39:50;11.23;;;7.50;;
17985;SDS011;9118;48.122;11.546;2023-04-07T13:42:17;11.40;;;8.07;;
17985;SDS011;9118;48.122;11.546;2023-04-07T13:44:45;9.13;;;7.40;;
17985;SDS011;9118;48.122;11.546;2023-04-07T13:47:14;9.27;;;7.37;;
17985;SDS011;9118;48.122;11.546;2023-04-07T13:49:44;10.40;;;7.57;;
17985;SDS011;9118;48.122;11.546;2023-04-07T13:52:11;9.60;;;7.23;;
17985;SDS011;9118;48.122;11.546;2023-04-07T13:54:38;9.70;;;7.73;;
17985;SDS011;9118;48.122;11.546;2023-04-07T13:57:07;9.40;;;7.40;;
17985;SDS011;9118;48.122;11.546;2023-04-07T13:59:34;10.10;;;7.47;;
17985;SDS011;9118;48.122;11.546;2023-04-07T14:02:01;9.67;;;7.73;;
17985;SDS011;9118;48.122;11.546;2023-04-07T14:04:29;11.33;;;7.20;;
17985;SDS011;9118;48.122;11.546;2023-04-07T14:06:56;7.87;;;6.63;;
17985;SDS011;9118;48.122;11.546;2023-04-07T14:09:23;8.17;;;7.17;;
17985;SDS011;9118;48.122;11.546;2023-04-07T14:11:54;9.17;;;6.93;;
17985;SDS011;9118;48.122;11.546;2023-04-07T14:14:22;9.97;;;7.10;;
17985;SDS011;9118;48.122;11.546;2023-04-07T14:16:49;8.93;;;6.53;;
17985;SDS011;9118;48.122;11.546;2023-04-07T14:19:17;10.93;;;6.57;;
17985;SDS011;9118;48.122;11.546;2023-04-07T14:21:46;9.10;;;7.37;;
17985;SDS011;9118;48.122;11.546;2023-04-07T14:24:13;8.60;;;7.00;;
17985;SDS011;9118;48.122;11.546;2023-04-07T14:26:41;8.87;;;7.60;;
17985;SDS011;9118;48.122;11.546;2023-04-07T14:29:09;9.63;;;7.30;;
17985;SDS011;9118;48.122;11.546;2023-04-07T14:31:38;7.97;;;6.87;;
17985;SDS011;9118;48.122;11.546;2023-04-07T14:34:05;9.07;;;6.60;;
17985;SDS011;9118;48.122;11.546;2023-04-07T14:36:33;7.53;;;6.70;;
17985;SDS011;9118;48.122;11.546;2023-04-07T14:39:00;9.13;;;6.73;;
17985;SDS011;9118;48.122;11.546;2023-04-07T14:41:27;9.20;;;7.00;;
17985;SDS011;9118;48.122;11.546;2023-04-07T14:43:55;7.83;;;6.50;;
17985;SDS011;9118;48.122;11.546;2023-04-07T14:46:22;7.77;;;6.63;;
17985;SDS011;9118;48.122;11.546;2023-04-07T14:48:52;9.03;;;6.43;;
17985;SDS011;9118;48.122;11.546;2023-04-07T14:51:20;8.13;;;6.60;;
17985;SDS011;9118;48.122;11.546;2023-04-07T14:53:47;10.23;;;6.87;;
17985;SDS011;9118;48.122;11.546;2023-04-07T14:56:17;7.30;;;6.37;;
17985;SDS011;9118;48.122;11.546;2023-04-07T14:58:45;7.87;;;6.70;;
17985;SDS011;9118;48.122;11.546;2023-04-07T15:01:12;7.77;;;6.27;;
17985;SDS011;9118;48.122;11.546;2023-04-07T15:03:39;8.50;;;6.27;;
17985;SDS011;9118;48.122;11.546;2023-04-07T15:06:08;7.73;;;6.40;;
17985;SDS011;9118;48.122;11.546;2023-04-07T15:08:35;11.33;;;7.13;;
17985;SDS011;9118;48.122;11.546;2023-04-07T15:11:03;10.67;;;6.93;;